createdAt,value
2022-08-31T00:00:10.010Z,100174.38
2022-08-31T00:02:55.371Z,100178.09
2022-08-31T00:05:22.307Z,100192.19
2022-08-31T00:07:48.952Z,100183.75
2022-08-31T00:10:18.821Z,100190.59
2022-08-31T00:12:49.281Z,100188.16
2022-08-31T00:15:19.500Z,100192.63
2022-08-31T00:17:49.957Z,100196.69
2022-08-31T00:20:32.802Z,100200.75
2022-08-31T00:23:04.284Z,100193.28
2022-08-31T00:25:31.565Z,100191.56
2022-08-31T00:27:58.274Z,100177.72
2022-08-31T00:30:25.068Z,100163.38
2022-08-31T00:32:51.805Z,100184.00
2022-08-31T00:35:19.342Z,100200.59
2022-08-31T00:37:45.989Z,100183.03
2022-08-31T00:40:13.322Z,100196.75
2022-08-31T00:42:40.062Z,100190.66
2022-08-31T00:45:10.476Z,100198.03
2022-08-31T00:47:37.512Z,100198.75
2022-08-31T00:50:07.994Z,100178.09
2022-08-31T00:52:39.523Z,100190.16
2022-08-31T00:55:31.550Z,100210.38
2022-08-31T00:58:02.447Z,100208.69
2022-08-31T01:00:29.749Z,100211.66
2022-08-31T01:02:59.596Z,100160.47
2022-08-31T01:05:27.320Z,100201.22
2022-08-31T01:07:54.440Z,100194.34
2022-08-31T01:10:23.906Z,100215.94
2022-08-31T01:12:54.680Z,100195.47
2022-08-31T01:15:22.813Z,100175.38
2022-08-31T01:17:52.412Z,100202.94
2022-08-31T01:20:23.811Z,100205.94
2022-08-31T01:23:06.224Z,100199.66
2022-08-31T01:25:36.563Z,100194.66
2022-08-31T01:28:06.594Z,100192.00
2022-08-31T01:30:34.742Z,100197.09
2022-08-31T01:33:01.452Z,100166.66
2022-08-31T01:35:29.017Z,100182.19
2022-08-31T01:37:56.904Z,100191.78
2022-08-31T01:40:34.061Z,100179.97
2022-08-31T01:43:00.897Z,100118.94
2022-08-31T01:45:27.524Z,100142.91
2022-08-31T01:47:54.212Z,100198.28
2022-08-31T01:50:20.928Z,100176.25
2022-08-31T01:52:47.617Z,100202.66
2022-08-31T01:55:14.384Z,100192.41
2022-08-31T01:57:41.000Z,100181.22
2022-08-31T02:00:09.307Z,100166.22
2022-08-31T02:02:36.505Z,100217.66
2022-08-31T02:05:03.985Z,100203.69
2022-08-31T02:07:30.780Z,100202.09
2022-08-31T02:09:57.425Z,100162.19
2022-08-31T02:12:24.209Z,100210.38
2022-08-31T02:14:50.949Z,100178.50
2022-08-31T02:17:18.197Z,100198.97
2022-08-31T02:19:44.856Z,100178.50
2022-08-31T02:22:11.544Z,100138.22
2022-08-31T02:24:38.203Z,100186.59
2022-08-31T02:27:05.520Z,100187.63
2022-08-31T02:29:32.304Z,100165.41
2022-08-31T02:31:58.951Z,100194.47
2022-08-31T02:34:26.269Z,100200.13
2022-08-31T02:36:52.939Z,100188.28
2022-08-31T02:39:19.692Z,100179.47
2022-08-31T02:41:47.088Z,100179.47
2022-08-31T02:44:13.880Z,100147.19
2022-08-31T02:46:40.727Z,100196.47
2022-08-31T02:49:07.446Z,100190.84
2022-08-31T02:51:34.106Z,100186.13
2022-08-31T02:54:00.736Z,100097.50
2022-08-31T02:56:27.396Z,100196.84
2022-08-31T02:58:55.361Z,100191.19
2022-08-31T03:01:23.908Z,100199.81
2022-08-31T03:03:51.159Z,100196.59
2022-08-31T03:06:20.280Z,100178.06
2022-08-31T03:08:47.889Z,100099.06
2022-08-31T03:11:15.226Z,100187.16
2022-08-31T03:13:42.423Z,100197.81
2022-08-31T03:16:09.844Z,100169.31
2022-08-31T03:18:36.576Z,100115.38
2022-08-31T03:21:03.211Z,100181.81
2022-08-31T03:23:30.028Z,100196.28
2022-08-31T03:25:56.673Z,100184.25
2022-08-31T03:28:23.370Z,100183.28
2022-08-31T03:30:50.365Z,100189.16
2022-08-31T03:33:17.460Z,100165.13
2022-08-31T03:35:44.871Z,100167.03
2022-08-31T03:38:12.943Z,100180.97
2022-08-31T03:40:43.863Z,100202.38
2022-08-31T03:43:12.234Z,100171.69
2022-08-31T03:45:40.602Z,100199.91
2022-08-31T03:48:12.197Z,100148.06
2022-08-31T03:50:39.972Z,100185.75
2022-08-31T03:53:07.900Z,100190.88
2022-08-31T03:55:38.842Z,100197.50
2022-08-31T03:58:06.441Z,100194.16
2022-08-31T04:00:33.840Z,100207.03
2022-08-31T04:03:01.635Z,100202.00
2022-08-31T04:05:30.340Z,100192.06
2022-08-31T04:07:57.369Z,100157.03
2022-08-31T04:10:24.062Z,100194.53
2022-08-31T04:12:51.063Z,100188.75
2022-08-31T04:15:18.805Z,100204.13
2022-08-31T04:17:46.481Z,100184.03
2022-08-31T04:20:13.896Z,100207.25
2022-08-31T04:22:40.698Z,100187.00
2022-08-31T04:25:10.393Z,100138.16
2022-08-31T04:27:38.292Z,100204.88
2022-08-31T04:30:07.875Z,100209.44
2022-08-31T04:32:35.232Z,100189.16
2022-08-31T04:35:04.624Z,100214.84
2022-08-31T04:37:31.312Z,100177.88
2022-08-31T04:39:59.254Z,100183.59
2022-08-31T04:42:26.340Z,100093.63
2022-08-31T04:44:53.051Z,100194.38
2022-08-31T04:47:20.465Z,100181.94
2022-08-31T04:49:48.448Z,100218.84
2022-08-31T04:52:15.115Z,100166.56
2022-08-31T04:54:41.989Z,100214.09
2022-08-31T04:57:08.650Z,100206.97
2022-08-31T04:59:35.334Z,100201.75
2022-08-31T05:02:04.074Z,100225.44
2022-08-31T05:04:31.875Z,100211.38
2022-08-31T05:06:58.830Z,100231.00
2022-08-31T05:09:25.940Z,100201.13
2022-08-31T05:11:55.059Z,100230.16
2022-08-31T05:14:23.145Z,100243.50
2022-08-31T05:16:50.927Z,100234.47
2022-08-31T05:19:18.151Z,100203.81
2022-08-31T05:21:45.839Z,100232.25
2022-08-31T05:24:18.360Z,100227.53
2022-08-31T05:26:48.772Z,100252.47
2022-08-31T05:29:18.157Z,100234.28
2022-08-31T05:31:50.228Z,100252.72
2022-08-31T05:34:19.475Z,100249.63
2022-08-31T05:36:50.276Z,100240.22
2022-08-31T05:39:17.404Z,100248.22
2022-08-31T05:41:48.386Z,100215.59
2022-08-31T05:44:17.132Z,100254.00
2022-08-31T05:46:44.483Z,100232.31
2022-08-31T05:49:11.848Z,100211.91
2022-08-31T05:51:39.547Z,100247.59
2022-08-31T05:54:07.964Z,100247.84
2022-08-31T05:56:34.863Z,100240.97
2022-08-31T05:59:01.860Z,100188.13
2022-08-31T06:01:38.718Z,100241.22
2022-08-31T06:04:06.952Z,100248.63
2022-08-31T06:06:33.945Z,100231.88
2022-08-31T06:09:00.748Z,100229.72
2022-08-31T06:11:29.894Z,100253.91
2022-08-31T06:13:58.715Z,100242.16
2022-08-31T06:16:26.497Z,100247.22
2022-08-31T06:18:55.705Z,100255.84
2022-08-31T06:21:31.059Z,100255.63
2022-08-31T06:23:59.700Z,100259.91
2022-08-31T06:26:29.303Z,100233.78
2022-08-31T06:29:00.520Z,100255.38
2022-08-31T06:31:31.506Z,100239.78
2022-08-31T06:33:59.174Z,100247.00
2022-08-31T06:36:28.244Z,100263.53
2022-08-31T06:38:57.113Z,100263.91
2022-08-31T06:41:35.679Z,100207.41
2022-08-31T06:44:08.057Z,100256.41
2022-08-31T06:46:37.125Z,100237.94
2022-08-31T06:49:04.639Z,100264.91
2022-08-31T06:51:36.655Z,100260.84
2022-08-31T06:54:27.443Z,100250.59
2022-08-31T06:56:54.096Z,100240.72
2022-08-31T06:59:21.418Z,100247.56
2022-08-31T07:01:49.279Z,100218.94
2022-08-31T07:04:17.020Z,100215.88
2022-08-31T07:06:45.601Z,100259.44
2022-08-31T07:09:18.303Z,100231.97
2022-08-31T07:11:47.749Z,100240.84
2022-08-31T07:14:18.149Z,100201.25
2022-08-31T07:16:45.654Z,100251.84
2022-08-31T07:19:13.759Z,100243.25
2022-08-31T07:21:43.938Z,100236.00
2022-08-31T07:24:11.945Z,100245.34
2022-08-31T07:26:43.919Z,100247.06
2022-08-31T07:29:12.423Z,100239.34
2022-08-31T07:31:46.525Z,100226.19
2022-08-31T07:34:25.720Z,100213.03
2022-08-31T07:37:13.459Z,100191.72
2022-08-31T07:40:06.874Z,100221.22
2022-08-31T07:42:41.228Z,100239.47
2022-08-31T07:45:12.609Z,100214.31
2022-08-31T07:47:45.342Z,100219.53
2022-08-31T07:50:13.863Z,100233.13
2022-08-31T07:52:47.527Z,100238.69
2022-08-31T07:55:16.462Z,100212.03
2022-08-31T07:57:44.115Z,100231.00
2022-08-31T08:00:18.214Z,100237.94
2022-08-31T08:02:52.978Z,100243.09
2022-08-31T08:05:27.416Z,100240.13
2022-08-31T08:08:05.558Z,100236.69
2022-08-31T08:10:34.564Z,100239.28
2022-08-31T08:13:05.071Z,100202.53
2022-08-31T08:15:35.755Z,100215.91
2022-08-31T08:18:04.532Z,100228.75
2022-08-31T08:20:37.939Z,100214.34
2022-08-31T08:23:26.844Z,100232.00
2022-08-31T08:25:55.986Z,100213.94
2022-08-31T08:28:42.859Z,100225.22
2022-08-31T08:31:16.649Z,100235.56
2022-08-31T08:33:44.073Z,100230.91
2022-08-31T08:36:11.750Z,100195.13
2022-08-31T08:38:44.701Z,100218.78
2022-08-31T08:41:14.939Z,100212.31
2022-08-31T08:43:52.467Z,100220.88
2022-08-31T08:46:36.616Z,100195.66
2022-08-31T08:49:15.708Z,100213.91
2022-08-31T08:51:44.014Z,100209.66
2022-08-31T08:54:14.805Z,100161.25
2022-08-31T08:56:49.237Z,100209.34
2022-08-31T08:59:19.515Z,100210.94
2022-08-31T09:01:49.168Z,100169.88
2022-08-31T09:04:30.957Z,100210.28
2022-08-31T09:07:22.984Z,100192.50
2022-08-31T09:10:12.426Z,100205.91
2022-08-31T09:12:58.063Z,100183.84
2022-08-31T09:15:39.611Z,100176.72
2022-08-31T09:18:30.329Z,100189.25
2022-08-31T09:21:01.787Z,100177.22
2022-08-31T09:23:32.377Z,100193.09
2022-08-31T09:25:59.139Z,100176.97
2022-08-31T09:28:57.627Z,100187.38
2022-08-31T09:31:39.001Z,100184.94
2022-08-31T09:34:24.725Z,100165.91
2022-08-31T09:37:01.573Z,100157.72
2022-08-31T09:39:33.049Z,100173.69
2022-08-31T09:42:14.766Z,100165.13
2022-08-31T09:44:42.939Z,100165.31
2022-08-31T09:47:55.906Z,100145.31
2022-08-31T09:50:25.844Z,100159.28
2022-08-31T09:53:32.367Z,100140.91
2022-08-31T09:56:14.369Z,100153.97
2022-08-31T09:58:57.091Z,100149.13
2022-08-31T10:01:30.077Z,100141.41
2022-08-31T10:04:26.003Z,100139.28
2022-08-31T10:07:14.478Z,100138.78
2022-08-31T10:10:08.373Z,100108.63
2022-08-31T10:13:01.950Z,100113.69
2022-08-31T10:15:37.087Z,100102.97
2022-08-31T10:18:13.958Z,100114.69
2022-08-31T10:20:56.941Z,100109.78
2022-08-31T10:23:36.147Z,100103.22
2022-08-31T10:26:17.925Z,100087.94
2022-08-31T10:28:52.419Z,100106.03
2022-08-31T10:31:24.348Z,100088.69
2022-08-31T10:34:17.209Z,100089.16
2022-08-31T10:36:46.451Z,100097.81
2022-08-31T10:39:33.197Z,100087.91
2022-08-31T10:42:05.433Z,100072.94
2022-08-31T10:44:42.212Z,100073.69
2022-08-31T10:47:16.545Z,100074.06
2022-08-31T10:50:00.834Z,100067.59
2022-08-31T10:53:13.738Z,100078.25
2022-08-31T10:56:03.396Z,100082.09
2022-08-31T10:58:33.104Z,100084.63
2022-08-31T11:01:02.635Z,100083.50
2022-08-31T11:03:58.095Z,100057.47
2022-08-31T11:06:39.257Z,100075.69
2022-08-31T11:09:15.114Z,100056.03
2022-08-31T11:12:07.184Z,100065.81
2022-08-31T11:14:33.877Z,100057.91
2022-08-31T11:17:12.159Z,100056.78
2022-08-31T11:19:50.687Z,100044.97
2022-08-31T11:22:34.657Z,100056.72
2022-08-31T11:25:37.739Z,100053.69
2022-08-31T11:28:34.225Z,100050.50
2022-08-31T11:31:09.136Z,100058.47
2022-08-31T11:33:36.148Z,100033.81
2022-08-31T11:36:10.312Z,100036.63
2022-08-31T11:38:50.158Z,100032.81
2022-08-31T11:41:34.773Z,100037.88
2022-08-31T11:44:04.488Z,100014.38
2022-08-31T11:46:34.203Z,100024.38
2022-08-31T11:49:01.221Z,99998.50
2022-08-31T11:51:42.708Z,100022.22
2022-08-31T11:54:25.852Z,100019.28
2022-08-31T11:56:56.959Z,99969.50
2022-08-31T11:59:35.366Z,100012.72
2022-08-31T12:02:20.664Z,100019.06
2022-08-31T12:04:48.391Z,100016.44
2022-08-31T12:07:24.282Z,100011.94
2022-08-31T12:10:18.635Z,100012.94
2022-08-31T12:13:02.779Z,100010.25
2022-08-31T12:15:54.249Z,100003.66
2022-08-31T12:18:57.887Z,99995.75
2022-08-31T12:22:12.106Z,100000.88
2022-08-31T12:24:50.398Z,99994.66
2022-08-31T12:27:43.083Z,99995.19
2022-08-31T12:30:17.766Z,99981.59
2022-08-31T12:32:46.932Z,99972.66
2022-08-31T12:35:19.708Z,99988.94
2022-08-31T12:38:01.948Z,99965.63
2022-08-31T12:40:36.436Z,99974.22
2022-08-31T12:43:10.223Z,99969.50
2022-08-31T12:46:09.023Z,99974.03
2022-08-31T12:48:57.437Z,99969.72
2022-08-31T12:51:30.102Z,99973.66
2022-08-31T12:54:33.148Z,99967.59
2022-08-31T12:57:06.481Z,99973.34
2022-08-31T13:00:00.669Z,99959.38
2022-08-31T13:02:33.368Z,99951.31
2022-08-31T13:05:02.656Z,99919.28
2022-08-31T13:07:34.290Z,99959.78
2022-08-31T13:10:09.748Z,99965.88
2022-08-31T13:12:37.498Z,99950.84
2022-08-31T13:15:09.395Z,99941.47
2022-08-31T13:17:40.988Z,99953.88
2022-08-31T13:20:08.308Z,99937.19
2022-08-31T13:22:42.757Z,99959.38
2022-08-31T13:25:33.259Z,99957.91
2022-08-31T13:27:59.943Z,99946.38
2022-08-31T13:30:26.705Z,99939.44
2022-08-31T13:32:54.770Z,99953.72
2022-08-31T13:35:25.505Z,99874.34
2022-08-31T13:38:05.472Z,99935.38
2022-08-31T13:40:35.554Z,99959.41
2022-08-31T13:43:03.469Z,99935.88
2022-08-31T13:45:31.690Z,99957.34
2022-08-31T13:48:05.047Z,99953.06
2022-08-31T13:50:52.025Z,99947.22
2022-08-31T13:54:04.774Z,99952.63
2022-08-31T13:57:09.841Z,99948.94
2022-08-31T13:59:39.854Z,99947.72
2022-08-31T14:02:30.818Z,99942.56
2022-08-31T14:05:08.035Z,99936.97
2022-08-31T14:07:40.991Z,99931.69
2022-08-31T14:10:19.864Z,99932.41
2022-08-31T14:12:46.537Z,99929.69
2022-08-31T14:15:18.953Z,99919.34
2022-08-31T14:21:21.230Z,99926.53
2022-08-31T14:24:02.961Z,99885.06
2022-08-31T14:26:32.738Z,99882.69
2022-08-31T14:29:09.671Z,99912.69
2022-08-31T14:31:37.889Z,99948.19
2022-08-31T14:34:25.236Z,99937.66
2022-08-31T14:37:10.926Z,99947.72
2022-08-31T14:39:41.937Z,99921.63
2022-08-31T14:42:17.125Z,99916.44
2022-08-31T14:44:56.816Z,99895.72
2022-08-31T14:47:29.269Z,99944.19
2022-08-31T14:50:00.605Z,99953.47
2022-08-31T14:52:28.048Z,99898.38
2022-08-31T14:54:54.840Z,99926.72
2022-08-31T14:57:26.668Z,99944.31
2022-08-31T14:59:58.198Z,99928.03
2022-08-31T15:02:26.957Z,99937.81
2022-08-31T15:04:54.481Z,99933.97
2022-08-31T15:07:21.652Z,99929.47
2022-08-31T15:09:50.168Z,99937.16
2022-08-31T15:12:17.988Z,99931.81
2022-08-31T15:14:46.352Z,99923.31
2022-08-31T15:17:19.893Z,99905.25
2022-08-31T15:19:50.141Z,99888.91
2022-08-31T15:22:17.619Z,99906.41
2022-08-31T15:24:45.269Z,99917.03
2022-08-31T15:27:14.515Z,99919.66
2022-08-31T15:29:45.620Z,99919.19
2022-08-31T15:32:16.593Z,99895.75
2022-08-31T15:34:58.087Z,99902.81
2022-08-31T15:37:31.676Z,99894.56
2022-08-31T15:40:01.422Z,99909.63
2022-08-31T15:42:29.693Z,99904.13
2022-08-31T15:44:57.334Z,99894.59
2022-08-31T15:47:51.113Z,99873.47
2022-08-31T15:50:21.075Z,99899.06
2022-08-31T15:52:50.967Z,99905.06
2022-08-31T15:55:26.520Z,99884.97
2022-08-31T15:57:55.225Z,99886.31
2022-08-31T16:00:27.833Z,99894.50
2022-08-31T16:02:55.958Z,99883.03
2022-08-31T16:05:24.531Z,99871.38
2022-08-31T16:07:52.183Z,99870.41
2022-08-31T16:10:20.319Z,99885.56
2022-08-31T16:12:47.896Z,99886.69
2022-08-31T16:15:15.746Z,99867.97
2022-08-31T16:17:43.638Z,99889.22
2022-08-31T16:20:13.071Z,99885.34
2022-08-31T16:22:42.392Z,99872.47
2022-08-31T16:25:14.740Z,99879.28
2022-08-31T16:27:43.424Z,99858.97
2022-08-31T16:30:12.326Z,99873.72
2022-08-31T16:32:39.185Z,99881.22
2022-08-31T16:35:06.548Z,99849.97
2022-08-31T16:37:33.807Z,99880.69
2022-08-31T16:40:00.701Z,99857.13
2022-08-31T16:42:27.523Z,99869.34
2022-08-31T16:44:59.735Z,99890.91
2022-08-31T16:47:29.134Z,99892.63
2022-08-31T16:49:56.003Z,99877.19
2022-08-31T16:52:26.646Z,99817.16
2022-08-31T16:54:54.569Z,99869.63
2022-08-31T16:57:27.139Z,99879.94
2022-08-31T16:59:55.491Z,99882.66
2022-08-31T17:02:23.633Z,99880.34
2022-08-31T17:04:52.887Z,99868.19
2022-08-31T17:07:21.811Z,99888.63
2022-08-31T17:09:48.668Z,99874.13
2022-08-31T17:12:21.571Z,99888.28
2022-08-31T17:14:52.501Z,99890.13
2022-08-31T17:17:22.616Z,99868.88
2022-08-31T17:19:49.664Z,99860.78
2022-08-31T17:22:24.734Z,99889.44
2022-08-31T17:24:57.412Z,99898.19
2022-08-31T17:27:25.845Z,99896.75
2022-08-31T17:29:56.116Z,99900.09
2022-08-31T17:32:26.162Z,99892.78
2022-08-31T17:34:54.480Z,99895.78
2022-08-31T17:37:27.800Z,99910.56
2022-08-31T17:39:55.572Z,99907.56
2022-08-31T17:42:26.796Z,99913.94
2022-08-31T17:44:54.556Z,99915.78
2022-08-31T17:47:23.641Z,99916.91
2022-08-31T17:49:50.919Z,99911.19
2022-08-31T17:52:20.614Z,99856.81
2022-08-31T17:54:50.492Z,99910.19
2022-08-31T17:57:18.352Z,99935.38
2022-08-31T17:59:50.823Z,99933.72
2022-08-31T18:02:21.708Z,99923.22
2022-08-31T18:04:49.078Z,99935.88
2022-08-31T18:07:16.103Z,99937.72
2022-08-31T18:09:46.747Z,99943.03
2022-08-31T18:12:15.549Z,99946.16
2022-08-31T18:14:42.401Z,99921.97
2022-08-31T18:17:12.629Z,99942.63
2022-08-31T18:19:40.515Z,99932.69
2022-08-31T18:22:07.637Z,99936.50
2022-08-31T18:24:37.058Z,99928.25
2022-08-31T18:27:07.470Z,99951.13
2022-08-31T18:29:38.594Z,99941.38
2022-08-31T18:32:07.531Z,99946.91
2022-08-31T18:34:37.340Z,99931.13
2022-08-31T18:37:04.721Z,99943.03
2022-08-31T18:39:52.524Z,99938.53
2022-08-31T18:42:38.841Z,99941.47
2022-08-31T18:45:16.858Z,99945.00
2022-08-31T18:48:23.189Z,99956.09
2022-08-31T18:50:47.054Z,99960.47
2022-08-31T18:53:29.424Z,99945.31
2022-08-31T18:56:11.821Z,99966.59
2022-08-31T18:58:39.962Z,99977.59
2022-08-31T19:01:10.337Z,99963.13
2022-08-31T19:03:40.697Z,99962.53
2022-08-31T19:06:08.576Z,99977.59
2022-08-31T19:08:36.649Z,99982.81
2022-08-31T19:11:07.204Z,99952.22
2022-08-31T19:13:34.509Z,99950.09
2022-08-31T19:16:10.719Z,99966.50
2022-08-31T19:18:44.062Z,99975.03
2022-08-31T19:21:16.989Z,99965.53
2022-08-31T19:23:44.172Z,99980.50
2022-08-31T19:26:17.174Z,99949.41
2022-08-31T19:28:48.707Z,99958.75
2022-08-31T19:31:18.229Z,99962.59
2022-08-31T19:33:45.392Z,99959.03
2022-08-31T19:36:12.712Z,99963.81
2022-08-31T19:38:43.200Z,99968.91
2022-08-31T19:41:25.750Z,99971.88
2022-08-31T19:44:03.102Z,99948.78
2022-08-31T19:46:35.116Z,99925.63
2022-08-31T19:49:01.691Z,99954.94
2022-08-31T19:51:30.170Z,99945.34
2022-08-31T19:53:57.447Z,99957.78
2022-08-31T19:56:28.896Z,99958.63
2022-08-31T19:58:57.124Z,99951.75
2022-08-31T20:01:25.729Z,99963.00
2022-08-31T20:03:54.803Z,99959.53
2022-08-31T20:06:25.297Z,99972.34
2022-08-31T20:08:53.624Z,99952.47
2022-08-31T20:11:24.051Z,99970.84
2022-08-31T20:13:51.136Z,99963.06
2022-08-31T20:16:19.048Z,99947.53
2022-08-31T20:18:49.242Z,99938.38
2022-08-31T20:21:19.835Z,99951.22
2022-08-31T20:23:48.457Z,99941.91
2022-08-31T20:26:17.115Z,99953.75
2022-08-31T20:28:44.522Z,99953.75
2022-08-31T20:31:11.865Z,99926.66
2022-08-31T20:33:39.147Z,99941.66
2022-08-31T20:36:21.354Z,99957.00
2022-08-31T20:38:50.362Z,99917.50
2022-08-31T20:41:17.081Z,99936.28
2022-08-31T20:43:44.673Z,99942.50
2022-08-31T20:46:32.590Z,99879.13
2022-08-31T20:49:17.787Z,99924.28
2022-08-31T20:51:44.901Z,99956.44
2022-08-31T20:54:12.684Z,99941.34
2022-08-31T20:56:39.584Z,99937.81
2022-08-31T20:59:10.177Z,99949.81
2022-08-31T21:01:38.713Z,99934.88
2022-08-31T21:04:06.935Z,99940.53
2022-08-31T21:06:39.516Z,99939.25
2022-08-31T21:09:08.147Z,99936.56
2022-08-31T21:11:40.597Z,99950.53
2022-08-31T21:14:08.182Z,99905.28
2022-08-31T21:16:35.865Z,99922.91
2022-08-31T21:19:04.035Z,99928.53
2022-08-31T21:21:31.073Z,99896.38
2022-08-31T21:23:58.183Z,99931.25
2022-08-31T21:26:27.548Z,99947.34
2022-08-31T21:28:56.673Z,99932.50
2022-08-31T21:31:27.602Z,99944.91
2022-08-31T21:33:59.706Z,99903.56
2022-08-31T21:36:27.392Z,99949.59
2022-08-31T21:38:57.172Z,99922.09
2022-08-31T21:41:26.964Z,99913.28
2022-08-31T21:43:55.776Z,99925.72
2022-08-31T21:46:25.280Z,99925.97
2022-08-31T21:48:52.804Z,99946.75
2022-08-31T21:51:20.735Z,99927.66
2022-08-31T21:53:53.887Z,99937.25
2022-08-31T21:56:23.897Z,99938.38
2022-08-31T21:58:51.032Z,99951.53
2022-08-31T22:01:19.539Z,99936.69
2022-08-31T22:03:50.800Z,99943.47
2022-08-31T22:06:26.979Z,99956.16
2022-08-31T22:09:00.301Z,99907.91
2022-08-31T22:11:30.595Z,99963.63
2022-08-31T22:13:59.037Z,99957.56
2022-08-31T22:16:26.434Z,99946.41
2022-08-31T22:19:01.258Z,99956.59
2022-08-31T22:21:32.000Z,99953.19
2022-08-31T22:24:02.347Z,99957.88
2022-08-31T22:26:30.360Z,99957.97
2022-08-31T22:28:57.119Z,99935.56
2022-08-31T22:31:25.325Z,99943.72
2022-08-31T22:33:52.247Z,99936.13
2022-08-31T22:36:31.179Z,99944.59
2022-08-31T22:39:04.188Z,99930.72
2022-08-31T22:41:32.755Z,99931.28
2022-08-31T22:44:00.318Z,99938.22
2022-08-31T22:46:27.921Z,99932.69
2022-08-31T22:48:54.753Z,99933.97
2022-08-31T22:51:22.621Z,99923.34
2022-08-31T22:53:51.680Z,99915.16
2022-08-31T22:56:26.137Z,99885.56
2022-08-31T22:58:56.028Z,99934.72
2022-08-31T23:01:29.490Z,99933.03
2022-08-31T23:03:58.921Z,99917.75
2022-08-31T23:06:27.189Z,99927.41
2022-08-31T23:08:55.557Z,99921.59
2022-08-31T23:11:24.480Z,99884.13
2022-08-31T23:13:53.740Z,99918.53
2022-08-31T23:16:33.372Z,99914.84
2022-08-31T23:19:12.157Z,99936.28
2022-08-31T23:21:44.495Z,99932.00
2022-08-31T23:24:17.492Z,99946.00
2022-08-31T23:26:46.506Z,99932.16
2022-08-31T23:29:18.013Z,99931.16
2022-08-31T23:31:46.946Z,99933.97
2022-08-31T23:34:13.577Z,99904.09
2022-08-31T23:36:42.551Z,99923.06
2022-08-31T23:39:09.791Z,99919.16
2022-08-31T23:41:38.959Z,99913.34
2022-08-31T23:44:09.269Z,99904.31
2022-08-31T23:46:38.152Z,99920.66
2022-08-31T23:49:08.835Z,99914.88
2022-08-31T23:51:36.064Z,99916.16
2022-08-31T23:54:07.912Z,99919.78
2022-08-31T23:56:40.868Z,99914.69
2022-08-31T23:59:10.829Z,99900.59
